X  Close Metar Aviation Weather Data     LGBL Nea Anchialos National Airport
Temperature
15°C Temperature
5°C Dewpoint
51% Humidity



Wind
11 KM/H
7 MPH
3 M/S
6 KTS



280°
W
Current Conditions

Partly Cloudy Partly Cloudy
Pressure 1005.76 (hPa) - 29.7 (inHg)
Visibility 6 (mile) - 9.7 (km)
Airport
Airport-code LGBL

Location: Nea Anchialos National Airport
Distance: 74 (km)

Metar:
LGBL 242150Z 28006KT 9999 FEW030 15/05 Q1006

Time: 25-04-2024 00:50 EEST